sensor_id;sensor_type;location;lat;lon;timestamp;temperature;humidity
36924;DHT22;22841;50.252;18.688;2022-07-30T00:00:58;18.30;99.90
36924;DHT22;22841;50.252;18.688;2022-07-30T00:03:24;18.30;99.90
36924;DHT22;22841;50.252;18.688;2022-07-30T00:05:51;18.20;99.90
36924;DHT22;22841;50.252;18.688;2022-07-30T00:08:17;18.20;99.90
36924;DHT22;22841;50.252;18.688;2022-07-30T00:10:43;18.20;99.90
36924;DHT22;22841;50.252;18.688;2022-07-30T00:13:09;18.20;99.90
36924;DHT22;22841;50.252;18.688;2022-07-30T00:15:35;18.20;99.90
36924;DHT22;22841;50.252;18.688;2022-07-30T00:18:01;18.20;99.90
36924;DHT22;22841;50.252;18.688;2022-07-30T00:20:28;18.20;99.90
36924;DHT22;22841;50.252;18.688;2022-07-30T00:22:54;18.10;99.90
36924;DHT22;22841;50.252;18.688;2022-07-30T00:25:20;18.30;99.90
36924;DHT22;22841;50.252;18.688;2022-07-30T00:27:46;18.20;99.90
36924;DHT22;22841;50.252;18.688;2022-07-30T00:30:13;18.20;99.90
36924;DHT22;22841;50.252;18.688;2022-07-30T00:32:39;18.30;99.90
36924;DHT22;22841;50.252;18.688;2022-07-30T00:35:05;18.20;99.90
36924;DHT22;22841;50.252;18.688;2022-07-30T00:37:32;18.20;99.90
36924;DHT22;22841;50.252;18.688;2022-07-30T00:39:58;18.10;99.90
36924;DHT22;22841;50.252;18.688;2022-07-30T00:42:39;18.10;99.90
36924;DHT22;22841;50.252;18.688;2022-07-30T00:45:06;18.20;99.90
36924;DHT22;22841;50.252;18.688;2022-07-30T00:47:35;18.20;99.90
36924;DHT22;22841;50.252;18.688;2022-07-30T00:50:01;18.20;99.90
36924;DHT22;22841;50.252;18.688;2022-07-30T00:52:33;18.30;99.90
36924;DHT22;22841;50.252;18.688;2022-07-30T00:54:59;18.40;99.90
36924;DHT22;22841;50.252;18.688;2022-07-30T00:57:26;18.40;99.90
36924;DHT22;22841;50.252;18.688;2022-07-30T00:59:54;18.30;99.90
36924;DHT22;22841;50.252;18.688;2022-07-30T01:02:21;18.30;99.90
36924;DHT22;22841;50.252;18.688;2022-07-30T01:04:47;18.40;99.90
36924;DHT22;22841;50.252;18.688;2022-07-30T01:07:13;18.30;99.90
36924;DHT22;22841;50.252;18.688;2022-07-30T01:09:39;18.30;99.90
36924;DHT22;22841;50.252;18.688;2022-07-30T01:12:06;18.30;99.90
36924;DHT22;22841;50.252;18.688;2022-07-30T01:14:34;18.30;99.90
36924;DHT22;22841;50.252;18.688;2022-07-30T01:17:01;18.30;99.90
36924;DHT22;22841;50.252;18.688;2022-07-30T01:19:29;18.20;99.90
36924;DHT22;22841;50.252;18.688;2022-07-30T01:25:16;18.20;99.90
36924;DHT22;22841;50.252;18.688;2022-07-30T01:27:49;18.20;99.90
36924;DHT22;22841;50.252;18.688;2022-07-30T01:30:19;18.20;99.90
36924;DHT22;22841;50.252;18.688;2022-07-30T01:32:46;18.20;99.90
36924;DHT22;22841;50.252;18.688;2022-07-30T01:35:15;18.00;99.90
36924;DHT22;22841;50.252;18.688;2022-07-30T01:37:43;18.00;99.90
36924;DHT22;22841;50.252;18.688;2022-07-30T01:40:11;18.00;99.90
36924;DHT22;22841;50.252;18.688;2022-07-30T01:42:39;18.00;99.90
36924;DHT22;22841;50.252;18.688;2022-07-30T01:45:08;18.10;99.90
36924;DHT22;22841;50.252;18.688;2022-07-30T01:47:38;18.10;99.90
36924;DHT22;22841;50.252;18.688;2022-07-30T01:50:08;18.10;99.90
36924;DHT22;22841;50.252;18.688;2022-07-30T01:52:35;18.10;99.90
36924;DHT22;22841;50.252;18.688;2022-07-30T01:55:03;18.20;99.90
36924;DHT22;22841;50.252;18.688;2022-07-30T01:57:30;18.10;99.90
36924;DHT22;22841;50.252;18.688;2022-07-30T02:00:02;18.10;99.90
36924;DHT22;22841;50.252;18.688;2022-07-30T02:02:29;18.00;99.90
36924;DHT22;22841;50.252;18.688;2022-07-30T02:04:55;18.10;99.90
36924;DHT22;22841;50.252;18.688;2022-07-30T02:10:27;18.10;99.90
36924;DHT22;22841;50.252;18.688;2022-07-30T02:12:57;18.10;99.90
36924;DHT22;22841;50.252;18.688;2022-07-30T02:15:42;18.10;99.90
36924;DHT22;22841;50.252;18.688;2022-07-30T02:18:26;18.20;99.90
36924;DHT22;22841;50.252;18.688;2022-07-30T02:21:05;18.10;99.90
36924;DHT22;22841;50.252;18.688;2022-07-30T02:23:38;18.10;99.90
36924;DHT22;22841;50.252;18.688;2022-07-30T02:26:06;18.10;99.90
36924;DHT22;22841;50.252;18.688;2022-07-30T02:28:37;18.10;99.90
36924;DHT22;22841;50.252;18.688;2022-07-30T02:31:06;18.10;99.90
36924;DHT22;22841;50.252;18.688;2022-07-30T02:33:39;18.00;99.90
36924;DHT22;22841;50.252;18.688;2022-07-30T02:36:07;18.00;99.90
36924;DHT22;22841;50.252;18.688;2022-07-30T02:38:35;18.00;99.90
36924;DHT22;22841;50.252;18.688;2022-07-30T02:41:03;18.10;99.90
36924;DHT22;22841;50.252;18.688;2022-07-30T02:43:30;18.00;99.90
36924;DHT22;22841;50.252;18.688;2022-07-30T02:45:58;18.00;99.90
36924;DHT22;22841;50.252;18.688;2022-07-30T02:48:26;18.00;99.90
36924;DHT22;22841;50.252;18.688;2022-07-30T02:50:52;18.00;99.90
36924;DHT22;22841;50.252;18.688;2022-07-30T02:53:21;18.00;99.90
36924;DHT22;22841;50.252;18.688;2022-07-30T02:55:48;18.00;99.90
36924;DHT22;22841;50.252;18.688;2022-07-30T02:58:20;18.00;99.90
36924;DHT22;22841;50.252;18.688;2022-07-30T03:00:49;18.00;99.90
36924;DHT22;22841;50.252;18.688;2022-07-30T03:03:17;17.80;99.90
36924;DHT22;22841;50.252;18.688;2022-07-30T03:05:43;17.90;99.90
36924;DHT22;22841;50.252;18.688;2022-07-30T03:08:12;17.90;99.90
36924;DHT22;22841;50.252;18.688;2022-07-30T03:10:41;17.90;99.90
36924;DHT22;22841;50.252;18.688;2022-07-30T03:13:11;18.00;99.90
36924;DHT22;22841;50.252;18.688;2022-07-30T03:15:41;17.90;99.90
36924;DHT22;22841;50.252;18.688;2022-07-30T03:18:12;17.90;99.90
36924;DHT22;22841;50.252;18.688;2022-07-30T03:20:40;18.00;99.90
36924;DHT22;22841;50.252;18.688;2022-07-30T03:23:10;18.00;99.90
36924;DHT22;22841;50.252;18.688;2022-07-30T03:25:38;18.00;99.90
36924;DHT22;22841;50.252;18.688;2022-07-30T03:28:05;18.00;99.90
36924;DHT22;22841;50.252;18.688;2022-07-30T03:30:33;17.90;99.90
36924;DHT22;22841;50.252;18.688;2022-07-30T03:33:01;17.80;99.90
36924;DHT22;22841;50.252;18.688;2022-07-30T03:35:27;17.90;99.90
36924;DHT22;22841;50.252;18.688;2022-07-30T03:37:54;17.90;99.90
36924;DHT22;22841;50.252;18.688;2022-07-30T03:40:21;17.90;99.90
36924;DHT22;22841;50.252;18.688;2022-07-30T03:42:48;17.90;99.90
36924;DHT22;22841;50.252;18.688;2022-07-30T03:45:15;17.90;99.90
36924;DHT22;22841;50.252;18.688;2022-07-30T03:47:42;18.00;99.90
36924;DHT22;22841;50.252;18.688;2022-07-30T03:50:09;18.00;99.90
36924;DHT22;22841;50.252;18.688;2022-07-30T03:52:39;18.00;99.90
36924;DHT22;22841;50.252;18.688;2022-07-30T03:55:07;18.00;99.90
36924;DHT22;22841;50.252;18.688;2022-07-30T03:57:34;18.00;99.90
36924;DHT22;22841;50.252;18.688;2022-07-30T04:00:01;18.00;99.90
36924;DHT22;22841;50.252;18.688;2022-07-30T04:02:27;18.00;99.90
36924;DHT22;22841;50.252;18.688;2022-07-30T04:04:53;18.00;99.90
36924;DHT22;22841;50.252;18.688;2022-07-30T04:07:19;18.00;99.90
36924;DHT22;22841;50.252;18.688;2022-07-30T04:09:45;18.00;99.90
36924;DHT22;22841;50.252;18.688;2022-07-30T04:12:12;18.00;99.90
36924;DHT22;22841;50.252;18.688;2022-07-30T04:14:40;18.00;99.90
36924;DHT22;22841;50.252;18.688;2022-07-30T04:17:17;17.90;99.90
36924;DHT22;22841;50.252;18.688;2022-07-30T04:20:13;17.90;99.90
36924;DHT22;22841;50.252;18.688;2022-07-30T04:22:41;17.90;99.90
36924;DHT22;22841;50.252;18.688;2022-07-30T04:25:08;18.00;99.90
36924;DHT22;22841;50.252;18.688;2022-07-30T04:27:35;18.00;99.90
36924;DHT22;22841;50.252;18.688;2022-07-30T04:30:02;18.10;99.90
36924;DHT22;22841;50.252;18.688;2022-07-30T04:32:29;18.10;99.90
36924;DHT22;22841;50.252;18.688;2022-07-30T04:34:55;18.10;99.90
36924;DHT22;22841;50.252;18.688;2022-07-30T04:37:24;18.00;99.90
36924;DHT22;22841;50.252;18.688;2022-07-30T04:39:51;18.10;99.90
36924;DHT22;22841;50.252;18.688;2022-07-30T04:42:20;18.10;99.90
36924;DHT22;22841;50.252;18.688;2022-07-30T04:44:46;18.10;99.90
36924;DHT22;22841;50.252;18.688;2022-07-30T04:47:13;18.20;99.90
36924;DHT22;22841;50.252;18.688;2022-07-30T04:49:40;18.20;99.90
36924;DHT22;22841;50.252;18.688;2022-07-30T04:52:07;18.20;99.90
36924;DHT22;22841;50.252;18.688;2022-07-30T04:54:39;18.40;99.90
36924;DHT22;22841;50.252;18.688;2022-07-30T04:57:09;18.40;99.90
36924;DHT22;22841;50.252;18.688;2022-07-30T04:59:35;18.40;99.90
36924;DHT22;22841;50.252;18.688;2022-07-30T05:02:03;18.40;99.90
36924;DHT22;22841;50.252;18.688;2022-07-30T05:04:31;18.50;99.90
36924;DHT22;22841;50.252;18.688;2022-07-30T05:07:01;18.60;99.90
36924;DHT22;22841;50.252;18.688;2022-07-30T05:09:28;18.60;99.90
36924;DHT22;22841;50.252;18.688;2022-07-30T05:11:56;18.50;99.90
36924;DHT22;22841;50.252;18.688;2022-07-30T05:14:23;18.50;99.90
36924;DHT22;22841;50.252;18.688;2022-07-30T05:16:49;18.50;99.90
36924;DHT22;22841;50.252;18.688;2022-07-30T05:19:16;18.50;99.90
36924;DHT22;22841;50.252;18.688;2022-07-30T05:21:43;18.60;99.90
36924;DHT22;22841;50.252;18.688;2022-07-30T05:24:09;18.60;99.90
36924;DHT22;22841;50.252;18.688;2022-07-30T05:26:35;18.60;99.90
36924;DHT22;22841;50.252;18.688;2022-07-30T05:29:02;18.60;99.90
36924;DHT22;22841;50.252;18.688;2022-07-30T05:31:28;18.60;99.90
36924;DHT22;22841;50.252;18.688;2022-07-30T05:33:54;18.60;99.90
36924;DHT22;22841;50.252;18.688;2022-07-30T05:36:20;18.60;99.90
36924;DHT22;22841;50.252;18.688;2022-07-30T05:38:47;18.60;99.90
36924;DHT22;22841;50.252;18.688;2022-07-30T05:41:15;18.60;99.90
36924;DHT22;22841;50.252;18.688;2022-07-30T05:43:41;18.60;99.90
36924;DHT22;22841;50.252;18.688;2022-07-30T05:46:07;18.50;99.90
36924;DHT22;22841;50.252;18.688;2022-07-30T05:48:34;18.50;99.90
36924;DHT22;22841;50.252;18.688;2022-07-30T05:51:02;18.60;99.90
36924;DHT22;22841;50.252;18.688;2022-07-30T05:53:28;18.60;99.90
36924;DHT22;22841;50.252;18.688;2022-07-30T05:55:54;18.60;99.90
36924;DHT22;22841;50.252;18.688;2022-07-30T05:58:21;18.60;99.90
36924;DHT22;22841;50.252;18.688;2022-07-30T06:00:47;18.60;99.90
36924;DHT22;22841;50.252;18.688;2022-07-30T06:03:13;18.70;99.90
36924;DHT22;22841;50.252;18.688;2022-07-30T06:05:39;18.70;99.90
36924;DHT22;22841;50.252;18.688;2022-07-30T06:08:05;18.70;99.90
36924;DHT22;22841;50.252;18.688;2022-07-30T06:10:32;18.80;99.90
36924;DHT22;22841;50.252;18.688;2022-07-30T06:12:58;18.80;99.90
36924;DHT22;22841;50.252;18.688;2022-07-30T06:15:24;18.80;99.90
36924;DHT22;22841;50.252;18.688;2022-07-30T06:17:50;18.70;99.90
36924;DHT22;22841;50.252;18.688;2022-07-30T06:20:17;18.80;99.90
36924;DHT22;22841;50.252;18.688;2022-07-30T06:22:44;18.80;99.90
36924;DHT22;22841;50.252;18.688;2022-07-30T06:25:10;18.80;99.90
36924;DHT22;22841;50.252;18.688;2022-07-30T06:27:37;18.90;99.90
36924;DHT22;22841;50.252;18.688;2022-07-30T06:30:07;18.90;99.90
36924;DHT22;22841;50.252;18.688;2022-07-30T06:32:35;19.00;99.90
36924;DHT22;22841;50.252;18.688;2022-07-30T06:35:02;19.00;99.90
36924;DHT22;22841;50.252;18.688;2022-07-30T06:37:28;19.10;99.90
36924;DHT22;22841;50.252;18.688;2022-07-30T06:39:54;19.10;99.90
36924;DHT22;22841;50.252;18.688;2022-07-30T06:42:20;19.20;99.90
36924;DHT22;22841;50.252;18.688;2022-07-30T06:44:47;19.30;99.90
36924;DHT22;22841;50.252;18.688;2022-07-30T06:47:13;19.30;99.90
36924;DHT22;22841;50.252;18.688;2022-07-30T06:49:44;19.30;99.90
36924;DHT22;22841;50.252;18.688;2022-07-30T06:52:10;19.40;99.90
36924;DHT22;22841;50.252;18.688;2022-07-30T06:54:36;19.50;99.90
36924;DHT22;22841;50.252;18.688;2022-07-30T06:57:02;19.60;99.90
36924;DHT22;22841;50.252;18.688;2022-07-30T06:59:28;19.60;99.90
36924;DHT22;22841;50.252;18.688;2022-07-30T07:01:54;19.50;99.90
36924;DHT22;22841;50.252;18.688;2022-07-30T07:04:20;19.60;99.90
36924;DHT22;22841;50.252;18.688;2022-07-30T07:06:46;19.70;99.90
36924;DHT22;22841;50.252;18.688;2022-07-30T07:09:12;19.80;99.90
36924;DHT22;22841;50.252;18.688;2022-07-30T07:11:38;19.90;99.90
36924;DHT22;22841;50.252;18.688;2022-07-30T07:14:04;20.00;99.90
36924;DHT22;22841;50.252;18.688;2022-07-30T07:16:30;20.00;99.90
36924;DHT22;22841;50.252;18.688;2022-07-30T07:18:56;20.10;99.90
36924;DHT22;22841;50.252;18.688;2022-07-30T07:21:23;20.10;99.90
36924;DHT22;22841;50.252;18.688;2022-07-30T07:23:49;20.20;99.90
36924;DHT22;22841;50.252;18.688;2022-07-30T07:26:16;20.30;99.90
36924;DHT22;22841;50.252;18.688;2022-07-30T07:28:42;20.30;99.90
36924;DHT22;22841;50.252;18.688;2022-07-30T07:31:09;20.40;99.90
36924;DHT22;22841;50.252;18.688;2022-07-30T07:33:36;20.40;99.90
36924;DHT22;22841;50.252;18.688;2022-07-30T07:36:03;20.40;99.90
36924;DHT22;22841;50.252;18.688;2022-07-30T07:38:29;20.20;99.90
36924;DHT22;22841;50.252;18.688;2022-07-30T07:40:55;20.30;99.90
36924;DHT22;22841;50.252;18.688;2022-07-30T07:43:21;20.20;99.90
36924;DHT22;22841;50.252;18.688;2022-07-30T07:45:50;20.30;99.90
36924;DHT22;22841;50.252;18.688;2022-07-30T07:48:17;20.30;99.90
36924;DHT22;22841;50.252;18.688;2022-07-30T07:50:43;20.20;99.90
36924;DHT22;22841;50.252;18.688;2022-07-30T07:53:10;20.30;99.90
36924;DHT22;22841;50.252;18.688;2022-07-30T07:55:37;20.40;99.90
36924;DHT22;22841;50.252;18.688;2022-07-30T07:58:03;20.60;99.90
36924;DHT22;22841;50.252;18.688;2022-07-30T08:00:30;20.60;99.90
36924;DHT22;22841;50.252;18.688;2022-07-30T08:02:56;20.80;99.90
36924;DHT22;22841;50.252;18.688;2022-07-30T08:05:22;20.80;99.90
36924;DHT22;22841;50.252;18.688;2022-07-30T08:07:49;20.90;99.90
36924;DHT22;22841;50.252;18.688;2022-07-30T08:10:15;20.90;99.90
36924;DHT22;22841;50.252;18.688;2022-07-30T08:12:41;21.00;99.90
36924;DHT22;22841;50.252;18.688;2022-07-30T08:15:09;21.10;99.90
36924;DHT22;22841;50.252;18.688;2022-07-30T08:17:45;21.10;99.90
36924;DHT22;22841;50.252;18.688;2022-07-30T08:20:13;21.20;99.90
36924;DHT22;22841;50.252;18.688;2022-07-30T08:22:40;21.30;99.90
36924;DHT22;22841;50.252;18.688;2022-07-30T08:25:07;21.50;99.20
36924;DHT22;22841;50.252;18.688;2022-07-30T08:27:33;21.60;98.70
36924;DHT22;22841;50.252;18.688;2022-07-30T08:30:07;21.80;95.40
36924;DHT22;22841;50.252;18.688;2022-07-30T08:32:35;22.00;97.60
36924;DHT22;22841;50.252;18.688;2022-07-30T08:35:02;22.00;99.90
36924;DHT22;22841;50.252;18.688;2022-07-30T08:37:29;22.20;94.50
36924;DHT22;22841;50.252;18.688;2022-07-30T08:39:55;22.10;97.70
36924;DHT22;22841;50.252;18.688;2022-07-30T08:42:21;22.10;97.20
36924;DHT22;22841;50.252;18.688;2022-07-30T08:44:47;22.10;97.50
36924;DHT22;22841;50.252;18.688;2022-07-30T08:47:18;22.10;97.60
36924;DHT22;22841;50.252;18.688;2022-07-30T08:49:45;22.20;94.50
36924;DHT22;22841;50.252;18.688;2022-07-30T08:52:13;22.20;96.40
36924;DHT22;22841;50.252;18.688;2022-07-30T08:54:39;22.10;98.90
36924;DHT22;22841;50.252;18.688;2022-07-30T08:57:06;22.00;96.50
36924;DHT22;22841;50.252;18.688;2022-07-30T08:59:32;22.00;96.20
36924;DHT22;22841;50.252;18.688;2022-07-30T09:01:58;22.10;95.60
36924;DHT22;22841;50.252;18.688;2022-07-30T09:04:24;22.10;96.90
36924;DHT22;22841;50.252;18.688;2022-07-30T09:06:50;22.10;97.90
36924;DHT22;22841;50.252;18.688;2022-07-30T09:09:16;22.10;96.90
36924;DHT22;22841;50.252;18.688;2022-07-30T09:11:43;22.10;98.00
36924;DHT22;22841;50.252;18.688;2022-07-30T09:14:13;22.20;98.30
36924;DHT22;22841;50.252;18.688;2022-07-30T09:16:40;22.20;98.10
36924;DHT22;22841;50.252;18.688;2022-07-30T09:19:15;22.20;94.20
36924;DHT22;22841;50.252;18.688;2022-07-30T09:21:41;22.30;94.30
36924;DHT22;22841;50.252;18.688;2022-07-30T09:24:10;22.50;92.40
36924;DHT22;22841;50.252;18.688;2022-07-30T09:27:03;22.60;90.60
36924;DHT22;22841;50.252;18.688;2022-07-30T09:29:31;22.90;86.90
36924;DHT22;22841;50.252;18.688;2022-07-30T09:32:04;23.10;86.40
36924;DHT22;22841;50.252;18.688;2022-07-30T09:34:36;23.20;83.80
36924;DHT22;22841;50.252;18.688;2022-07-30T09:37:04;23.20;81.10
36924;DHT22;22841;50.252;18.688;2022-07-30T09:39:35;23.10;1.00
36924;DHT22;22841;50.252;18.688;2022-07-30T09:42:03;23.20;99.90
36924;DHT22;22841;50.252;18.688;2022-07-30T09:44:29;23.20;99.90
36924;DHT22;22841;50.252;18.688;2022-07-30T09:46:58;23.10;99.90
36924;DHT22;22841;50.252;18.688;2022-07-30T09:49:25;23.10;99.90
36924;DHT22;22841;50.252;18.688;2022-07-30T09:51:52;23.10;99.90
36924;DHT22;22841;50.252;18.688;2022-07-30T09:54:19;23.10;99.90
36924;DHT22;22841;50.252;18.688;2022-07-30T09:56:45;23.20;99.90
36924;DHT22;22841;50.252;18.688;2022-07-30T09:59:37;23.10;99.90
36924;DHT22;22841;50.252;18.688;2022-07-30T10:02:03;23.10;99.90
36924;DHT22;22841;50.252;18.688;2022-07-30T10:04:31;23.00;99.90
36924;DHT22;22841;50.252;18.688;2022-07-30T10:06:59;23.10;99.90
36924;DHT22;22841;50.252;18.688;2022-07-30T10:09:29;23.10;99.90
36924;DHT22;22841;50.252;18.688;2022-07-30T10:11:57;23.10;99.90
36924;DHT22;22841;50.252;18.688;2022-07-30T10:14:25;23.20;99.90
36924;DHT22;22841;50.252;18.688;2022-07-30T10:16:53;23.20;99.90
36924;DHT22;22841;50.252;18.688;2022-07-30T10:19:20;23.10;99.90
36924;DHT22;22841;50.252;18.688;2022-07-30T10:21:48;23.10;99.90
36924;DHT22;22841;50.252;18.688;2022-07-30T10:24:16;23.20;99.90
36924;DHT22;22841;50.252;18.688;2022-07-30T10:26:44;23.20;49.30
36924;DHT22;22841;50.252;18.688;2022-07-30T10:29:15;23.30;99.90
36924;DHT22;22841;50.252;18.688;2022-07-30T10:31:47;23.20;99.90
36924;DHT22;22841;50.252;18.688;2022-07-30T10:34:14;23.20;99.90
36924;DHT22;22841;50.252;18.688;2022-07-30T10:36:49;23.10;90.10
36924;DHT22;22841;50.252;18.688;2022-07-30T10:39:24;23.10;99.90
36924;DHT22;22841;50.252;18.688;2022-07-30T10:41:57;23.10;99.90
36924;DHT22;22841;50.252;18.688;2022-07-30T10:44:31;23.00;99.90
36924;DHT22;22841;50.252;18.688;2022-07-30T10:47:08;22.80;99.90
36924;DHT22;22841;50.252;18.688;2022-07-30T10:49:35;22.70;99.90
36924;DHT22;22841;50.252;18.688;2022-07-30T10:52:01;22.70;99.90
36924;DHT22;22841;50.252;18.688;2022-07-30T10:54:37;22.50;99.90
36924;DHT22;22841;50.252;18.688;2022-07-30T11:02:27;22.10;1.00
36924;DHT22;22841;50.252;18.688;2022-07-30T11:07:45;21.90;1.00
36924;DHT22;22841;50.252;18.688;2022-07-30T11:10:38;21.90;1.00
36924;DHT22;22841;50.252;18.688;2022-07-30T11:13:06;21.90;1.00
36924;DHT22;22841;50.252;18.688;2022-07-30T11:15:52;21.80;1.00
36924;DHT22;22841;50.252;18.688;2022-07-30T11:18:23;21.80;1.90
36924;DHT22;22841;50.252;18.688;2022-07-30T11:21:15;21.80;13.10
36924;DHT22;22841;50.252;18.688;2022-07-30T11:23:43;21.70;36.50
36924;DHT22;22841;50.252;18.688;2022-07-30T11:28:55;21.40;53.30
36924;DHT22;22841;50.252;18.688;2022-07-30T11:31:28;21.20;80.40
36924;DHT22;22841;50.252;18.688;2022-07-30T11:37:12;21.00;93.50
36924;DHT22;22841;50.252;18.688;2022-07-30T11:42:30;20.70;97.70
36924;DHT22;22841;50.252;18.688;2022-07-30T11:47:43;20.60;99.90
36924;DHT22;22841;50.252;18.688;2022-07-30T11:50:23;20.60;99.90
36924;DHT22;22841;50.252;18.688;2022-07-30T11:52:55;20.60;99.90
36924;DHT22;22841;50.252;18.688;2022-07-30T11:55:30;20.60;99.90
36924;DHT22;22841;50.252;18.688;2022-07-30T11:57:59;20.50;99.90
36924;DHT22;22841;50.252;18.688;2022-07-30T12:00:41;20.50;99.90
36924;DHT22;22841;50.252;18.688;2022-07-30T12:03:15;20.50;99.90
36924;DHT22;22841;50.252;18.688;2022-07-30T12:05:41;20.40;99.90
36924;DHT22;22841;50.252;18.688;2022-07-30T12:08:09;20.40;99.90
36924;DHT22;22841;50.252;18.688;2022-07-30T12:10:35;20.30;99.90
36924;DHT22;22841;50.252;18.688;2022-07-30T12:13:11;20.30;99.90
36924;DHT22;22841;50.252;18.688;2022-07-30T12:15:40;20.30;99.90
36924;DHT22;22841;50.252;18.688;2022-07-30T12:18:07;20.20;99.90
36924;DHT22;22841;50.252;18.688;2022-07-30T12:20:33;20.30;99.90
36924;DHT22;22841;50.252;18.688;2022-07-30T12:23:00;20.30;99.90
36924;DHT22;22841;50.252;18.688;2022-07-30T12:25:27;20.10;99.90
36924;DHT22;22841;50.252;18.688;2022-07-30T12:27:54;20.10;99.90
36924;DHT22;22841;50.252;18.688;2022-07-30T12:30:20;20.20;99.90
36924;DHT22;22841;50.252;18.688;2022-07-30T12:32:46;20.10;99.90
36924;DHT22;22841;50.252;18.688;2022-07-30T12:35:12;20.10;99.90
36924;DHT22;22841;50.252;18.688;2022-07-30T12:37:39;20.10;99.90
36924;DHT22;22841;50.252;18.688;2022-07-30T12:40:10;20.10;99.90
36924;DHT22;22841;50.252;18.688;2022-07-30T12:42:49;20.00;99.90
36924;DHT22;22841;50.252;18.688;2022-07-30T12:45:30;20.00;99.90
36924;DHT22;22841;50.252;18.688;2022-07-30T12:47:57;19.90;99.90
36924;DHT22;22841;50.252;18.688;2022-07-30T12:50:25;19.90;99.90
36924;DHT22;22841;50.252;18.688;2022-07-30T12:52:53;20.00;99.90
36924;DHT22;22841;50.252;18.688;2022-07-30T12:55:31;20.00;99.90
36924;DHT22;22841;50.252;18.688;2022-07-30T12:58:04;20.00;99.90
36924;DHT22;22841;50.252;18.688;2022-07-30T13:03:39;20.10;99.90
36924;DHT22;22841;50.252;18.688;2022-07-30T13:06:16;20.10;99.90
36924;DHT22;22841;50.252;18.688;2022-07-30T13:08:53;20.10;99.90
36924;DHT22;22841;50.252;18.688;2022-07-30T13:11:38;20.10;99.90
36924;DHT22;22841;50.252;18.688;2022-07-30T13:14:04;20.10;99.90
36924;DHT22;22841;50.252;18.688;2022-07-30T13:16:33;20.20;99.90
36924;DHT22;22841;50.252;18.688;2022-07-30T13:18:59;20.20;99.90
36924;DHT22;22841;50.252;18.688;2022-07-30T13:21:26;20.10;99.90
36924;DHT22;22841;50.252;18.688;2022-07-30T13:23:52;20.10;99.90
36924;DHT22;22841;50.252;18.688;2022-07-30T13:26:18;20.10;99.90
36924;DHT22;22841;50.252;18.688;2022-07-30T13:28:44;20.10;99.90
36924;DHT22;22841;50.252;18.688;2022-07-30T13:31:13;20.00;99.90
36924;DHT22;22841;50.252;18.688;2022-07-30T13:33:39;20.00;99.90
36924;DHT22;22841;50.252;18.688;2022-07-30T13:36:06;19.90;99.90
36924;DHT22;22841;50.252;18.688;2022-07-30T13:38:32;19.90;99.90
36924;DHT22;22841;50.252;18.688;2022-07-30T13:40:59;19.80;99.90
36924;DHT22;22841;50.252;18.688;2022-07-30T13:43:25;19.80;99.90
36924;DHT22;22841;50.252;18.688;2022-07-30T13:45:52;19.80;99.90
36924;DHT22;22841;50.252;18.688;2022-07-30T13:48:18;19.90;99.90
36924;DHT22;22841;50.252;18.688;2022-07-30T13:50:45;19.80;99.90
36924;DHT22;22841;50.252;18.688;2022-07-30T13:53:12;19.80;99.90
36924;DHT22;22841;50.252;18.688;2022-07-30T13:55:39;19.90;99.90
36924;DHT22;22841;50.252;18.688;2022-07-30T13:58:06;19.80;99.90
36924;DHT22;22841;50.252;18.688;2022-07-30T14:00:32;19.80;99.90
36924;DHT22;22841;50.252;18.688;2022-07-30T14:03:04;19.80;99.90
36924;DHT22;22841;50.252;18.688;2022-07-30T14:05:30;19.70;99.90
36924;DHT22;22841;50.252;18.688;2022-07-30T14:07:58;19.70;99.90
36924;DHT22;22841;50.252;18.688;2022-07-30T14:10:24;19.70;99.90
36924;DHT22;22841;50.252;18.688;2022-07-30T14:12:52;19.60;99.90
36924;DHT22;22841;50.252;18.688;2022-07-30T14:15:22;19.50;99.90
36924;DHT22;22841;50.252;18.688;2022-07-30T14:17:49;19.50;99.90
36924;DHT22;22841;50.252;18.688;2022-07-30T14:20:17;19.40;99.90
36924;DHT22;22841;50.252;18.688;2022-07-30T14:22:43;19.30;99.90
36924;DHT22;22841;50.252;18.688;2022-07-30T14:25:10;19.30;99.90
36924;DHT22;22841;50.252;18.688;2022-07-30T14:27:37;19.30;99.90
36924;DHT22;22841;50.252;18.688;2022-07-30T14:30:04;19.30;99.90
36924;DHT22;22841;50.252;18.688;2022-07-30T14:32:31;19.20;99.90
36924;DHT22;22841;50.252;18.688;2022-07-30T14:34:57;19.30;99.90
36924;DHT22;22841;50.252;18.688;2022-07-30T14:37:23;19.20;99.90
36924;DHT22;22841;50.252;18.688;2022-07-30T14:39:49;19.20;99.90
36924;DHT22;22841;50.252;18.688;2022-07-30T14:42:15;19.20;99.90
36924;DHT22;22841;50.252;18.688;2022-07-30T14:44:42;19.10;99.90
36924;DHT22;22841;50.252;18.688;2022-07-30T14:47:08;19.10;99.90
36924;DHT22;22841;50.252;18.688;2022-07-30T14:49:34;19.00;99.90
36924;DHT22;22841;50.252;18.688;2022-07-30T14:52:00;19.00;99.90
36924;DHT22;22841;50.252;18.688;2022-07-30T14:54:26;19.00;99.90
36924;DHT22;22841;50.252;18.688;2022-07-30T14:56:53;19.00;99.90
36924;DHT22;22841;50.252;18.688;2022-07-30T14:59:19;19.00;99.90
36924;DHT22;22841;50.252;18.688;2022-07-30T15:01:45;19.00;99.90
36924;DHT22;22841;50.252;18.688;2022-07-30T15:04:13;19.10;99.90
36924;DHT22;22841;50.252;18.688;2022-07-30T15:06:39;19.10;99.90
36924;DHT22;22841;50.252;18.688;2022-07-30T15:09:07;19.10;99.90
36924;DHT22;22841;50.252;18.688;2022-07-30T15:11:33;19.10;99.90
36924;DHT22;22841;50.252;18.688;2022-07-30T15:13:59;19.10;99.90
36924;DHT22;22841;50.252;18.688;2022-07-30T15:16:25;19.00;99.90
36924;DHT22;22841;50.252;18.688;2022-07-30T15:18:52;19.00;99.90
36924;DHT22;22841;50.252;18.688;2022-07-30T15:21:18;19.00;99.90
36924;DHT22;22841;50.252;18.688;2022-07-30T15:23:44;19.00;99.90
36924;DHT22;22841;50.252;18.688;2022-07-30T15:26:10;19.00;99.90
36924;DHT22;22841;50.252;18.688;2022-07-30T15:28:37;19.00;99.90
36924;DHT22;22841;50.252;18.688;2022-07-30T15:31:04;19.00;99.90
36924;DHT22;22841;50.252;18.688;2022-07-30T15:33:30;19.10;99.90
36924;DHT22;22841;50.252;18.688;2022-07-30T15:35:56;19.10;99.90
36924;DHT22;22841;50.252;18.688;2022-07-30T15:38:22;19.00;99.90
36924;DHT22;22841;50.252;18.688;2022-07-30T15:40:48;19.00;99.90
36924;DHT22;22841;50.252;18.688;2022-07-30T15:43:14;18.90;99.90
36924;DHT22;22841;50.252;18.688;2022-07-30T15:45:42;18.90;99.90
36924;DHT22;22841;50.252;18.688;2022-07-30T15:48:08;18.90;99.90
36924;DHT22;22841;50.252;18.688;2022-07-30T15:50:34;18.80;99.90
36924;DHT22;22841;50.252;18.688;2022-07-30T15:53:01;18.70;99.90